Time;durP1;ratioP1;P1;durP2;ratioP2;P2;SDS_P1;SDS_P2;PMS_P1;PMS_P2;Temp;Humidity;BMP_temperature;BMP_pressure;BME280_temperature;BME280_humidity;BME280_pressure;Samples;Min_cycle;Max_cycle;Signal;HPM_P1;HPM_P2
2022/01/16 00:00:15;;;;;;;72.95;28.83;;;;;;;2.76;100.00;102331.88;5072965;28;20024;-78
2022/01/16 00:05:26;;;;;;;69.25;27.55;;;;;;;2.77;100.00;102339.72;5056038;28;20033;-80
2022/01/16 00:07:52;;;;;;;73.13;27.77;;;;;;;2.80;100.00;102325.84;5069324;28;20476;-81
2022/01/16 00:10:18;;;;;;;78.10;29.15;;;;;;;2.78;100.00;102323.19;5075187;28;20060;-72
2022/01/16 00:12:48;;;;;;;79.28;29.95;;;;;;;2.84;100.00;102329.34;5057929;28;20029;-72
2022/01/16 00:15:14;;;;;;;85.18;29.73;;;;;;;2.91;100.00;102341.66;5055291;28;20389;-81
2022/01/16 00:17:51;;;;;;;87.00;31.45;;;;;;;2.92;100.00;102331.19;5064932;28;20506;-71
2022/01/16 00:20:17;;;;;;;90.57;31.67;;;;;;;3.00;100.00;102327.78;5075236;28;20042;-78
2022/01/16 00:22:44;;;;;;;95.82;33.00;;;;;;;3.00;100.00;102319.94;5060286;28;20040;-71
2022/01/16 00:25:10;;;;;;;96.05;32.35;;;;;;;3.04;100.00;102317.34;5075293;28;20025;-72
2022/01/16 00:27:35;;;;;;;93.63;31.75;;;;;;;3.06;100.00;102309.53;5074880;28;20013;-71
2022/01/16 00:30:00;;;;;;;84.18;31.05;;;;;;;3.09;100.00;102301.69;5075216;28;20036;-72
2022/01/16 00:32:26;;;;;;;94.43;32.83;;;;;;;3.11;100.00;102315.69;5074881;28;20028;-81
2022/01/16 00:34:51;;;;;;;95.57;32.63;;;;;;;3.10;100.00;102317.41;5075137;28;20024;-76
2022/01/16 00:37:16;;;;;;;91.32;32.10;;;;;;;3.11;100.00;102323.56;5074847;28;20063;-70
2022/01/16 00:39:42;;;;;;;97.03;31.58;;;;;;;3.13;100.00;102321.81;5074904;28;20025;-84
2022/01/16 00:42:07;;;;;;;95.30;31.88;;;;;;;3.15;100.00;102314.00;5074669;28;20379;-72
2022/01/16 00:44:32;;;;;;;100.35;32.40;;;;;;;3.17;100.00;102320.09;5075002;28;20081;-81
2022/01/16 00:46:58;;;;;;;92.40;33.15;;;;;;;3.20;100.00;102323.63;5074880;28;20459;-78
2022/01/16 00:49:23;;;;;;;105.05;33.25;;;;;;;3.20;100.00;102323.63;5074774;28;20035;-84
2022/01/16 00:51:48;;;;;;;101.68;34.60;;;;;;;3.21;100.00;102328.00;5072043;28;20194;-73
2022/01/16 00:54:13;;;;;;;106.25;33.03;;;;;;;3.19;100.00;102302.69;5071987;28;20464;-73
2022/01/16 00:56:39;;;;;;;106.18;33.17;;;;;;;3.19;100.00;102293.06;5074654;28;20033;-72
2022/01/16 00:59:04;;;;;;;102.20;34.28;;;;;;;3.22;100.00;102305.31;5074546;28;20029;-71
2022/01/16 01:01:29;;;;;;;107.18;33.28;;;;;;;3.28;100.00;102279.19;5073202;28;20094;-79
2022/01/16 01:03:57;;;;;;;108.82;33.35;;;;;;;3.30;100.00;102259.16;5074164;28;20040;-79
2022/01/16 01:06:23;;;;;;;107.03;34.70;;;;;;;3.32;100.00;102264.41;5074638;28;20341;-72
2022/01/16 01:08:48;;;;;;;117.70;35.88;;;;;;;3.35;100.00;102275.78;5074550;28;20031;-76
2022/01/16 01:11:17;;;;;;;111.85;33.05;;;;;;;3.37;100.00;102275.78;5074181;28;20110;-70
2022/01/16 01:16:37;;;;;;;123.32;33.67;;;;;;;3.41;100.00;102320.31;5074465;28;20029;-82
2022/01/16 01:19:03;;;;;;;118.38;33.33;;;;;;;3.39;100.00;102301.13;5074551;28;20047;-80
2022/01/16 01:21:28;;;;;;;114.30;32.70;;;;;;;3.41;100.00;102304.59;5073701;28;20476;-71
2022/01/16 01:23:58;;;;;;;105.63;33.22;;;;;;;3.41;100.00;102288.03;5074296;28;20032;-75
2022/01/16 01:26:29;;;;;;;114.13;32.97;;;;;;;3.37;100.00;102291.50;5073878;28;20021;-81
2022/01/16 01:28:54;;;;;;;113.90;34.35;;;;;;;3.41;100.00;102282.78;5074273;28;20017;-75
2022/01/16 01:31:20;;;;;;;105.85;31.25;;;;;;;3.45;100.00;102300.28;5073578;28;20530;-70
2022/01/16 01:33:45;;;;;;;112.50;31.88;;;;;;;3.44;100.00;102294.19;5074252;28;20043;-71
2022/01/16 01:36:10;;;;;;;108.80;33.00;;;;;;;3.43;100.00;102300.28;5073399;28;20033;-78
2022/01/16 01:38:36;;;;;;;99.55;31.08;;;;;;;3.43;100.00;102296.78;5074339;28;20031;-83
2022/01/16 01:41:01;;;;;;;101.22;30.98;;;;;;;3.43;100.00;102247.03;5073818;28;20059;-81
2022/01/16 01:51:42;;;;;;;92.10;31.20;;;;;;;3.42;100.00;102225.19;5073230;28;20503;-82
2022/01/16 01:54:07;;;;;;;89.15;31.02;;;;;;;3.39;100.00;102245.22;5073966;28;20059;-78
2022/01/16 01:56:33;;;;;;;89.35;31.88;;;;;;;3.40;100.00;102265.31;5073477;28;20465;-71
2022/01/16 01:59:00;;;;;;;92.50;32.20;;;;;;;3.39;100.00;102271.41;5073540;28;20113;-71
2022/01/16 02:01:28;;;;;;;92.63;31.38;;;;;;;3.39;100.00;102285.41;5073073;28;20017;-82
2022/01/16 02:03:54;;;;;;;88.50;31.83;;;;;;;3.39;100.00;102311.59;5072928;28;20028;-74
2022/01/16 02:06:22;;;;;;;86.30;30.80;;;;;;;3.38;100.00;102299.34;5073704;28;20036;-75
2022/01/16 02:08:51;;;;;;;87.28;31.48;;;;;;;3.35;100.00;102307.19;5073110;28;20060;-75
2022/01/16 02:11:18;;;;;;;88.05;31.45;;;;;;;3.35;100.00;102320.28;5073092;28;20435;-72
2022/01/16 02:13:56;;;;;;;80.10;30.35;;;;;;;3.34;100.00;102310.69;5072672;28;20028;-71
2022/01/16 02:35:35;;;;;;;88.88;32.60;;;;;;;3.05;100.00;102310.41;5072755;28;20115;-69
2022/01/16 02:38:01;;;;;;;79.15;31.15;;;;;;;2.99;100.00;102312.94;5073016;28;20020;-71
2022/01/16 02:40:28;;;;;;;78.57;32.42;;;;;;;3.01;100.00;102317.34;5072604;28;20032;-71
2022/01/16 02:42:53;;;;;;;82.60;33.95;;;;;;;3.00;100.00;102312.09;5072436;28;20486;-71
2022/01/16 02:45:29;;;;;;;81.00;34.08;;;;;;;2.99;100.00;102305.97;5072507;28;20066;-79
2022/01/16 02:48:01;;;;;;;84.05;32.63;;;;;;;3.00;100.00;102297.25;5072796;28;20016;-78
2022/01/16 02:50:27;;;;;;;77.88;33.22;;;;;;;3.01;100.00;102296.41;5072189;28;20492;-78
2022/01/16 02:52:53;;;;;;;78.10;32.63;;;;;;;3.00;100.00;102294.63;5062255;28;20045;-83
2022/01/16 02:55:21;;;;;;;74.18;31.67;;;;;;;3.00;100.00;102284.16;5072275;28;20025;-74
2022/01/16 02:57:47;;;;;;;71.85;32.08;;;;;;;2.97;100.00;102278.03;5072288;28;20024;-79
2022/01/16 03:00:13;;;;;;;75.10;31.30;;;;;;;2.95;100.00;102288.47;5072610;28;20095;-84
2022/01/16 03:02:38;;;;;;;80.85;32.92;;;;;;;2.94;100.00;102276.25;5054309;28;20564;-71
2022/01/16 03:05:04;;;;;;;76.47;32.55;;;;;;;2.93;100.00;102278.00;5063001;28;20033;-83
2022/01/16 03:07:30;;;;;;;73.40;32.10;;;;;;;2.91;100.00;102256.16;5071630;28;20024;-79
2022/01/16 03:12:47;;;;;;;73.63;32.80;;;;;;;2.87;100.00;102266.59;5072093;28;20039;-71
2022/01/16 03:15:14;;;;;;;75.47;32.00;;;;;;;2.86;100.00;102254.38;5072292;28;20046;-80
2022/01/16 03:23:10;;;;;;;74.60;33.05;;;;;;;2.85;100.00;102237.81;5010700;28;20122;-71
2022/01/16 03:25:36;;;;;;;73.40;32.30;;;;;;;2.83;100.00;102243.91;5021038;28;20120;-77
2022/01/16 03:28:01;;;;;;;74.25;32.40;;;;;;;2.81;100.00;102241.25;5033838;28;20053;-71
2022/01/16 03:30:26;;;;;;;75.00;32.85;;;;;;;2.84;100.00;102243.00;5034261;28;20120;-71
2022/01/16 03:32:52;;;;;;;74.20;33.00;;;;;;;2.83;100.00;102241.28;5034461;28;20045;-72
2022/01/16 03:35:17;;;;;;;76.38;33.45;;;;;;;2.80;100.00;102236.91;5033660;28;20029;-70
2022/01/16 03:37:43;;;;;;;72.88;31.35;;;;;;;2.79;100.00;102238.63;5034154;28;20397;-74
2022/01/16 03:40:11;;;;;;;65.47;31.00;;;;;;;2.77;100.00;102235.09;5033611;28;20025;-71
2022/01/16 03:42:37;;;;;;;69.88;30.65;;;;;;;2.74;100.00;102224.59;5034099;28;20120;-79
2022/01/16 03:45:07;;;;;;;70.75;31.50;;;;;;;2.73;100.00;102230.69;5034019;28;20060;-71
2022/01/16 03:47:32;;;;;;;69.90;32.10;;;;;;;2.72;100.00;102226.31;5033643;28;20120;-79
2022/01/16 03:49:58;;;;;;;73.20;31.80;;;;;;;2.75;100.00;102220.25;5033261;28;20120;-71
2022/01/16 03:52:23;;;;;;;66.97;30.77;;;;;;;2.76;100.00;102225.50;5033540;28;20050;-83
2022/01/16 03:54:48;;;;;;;69.43;31.75;;;;;;;2.76;100.00;102228.13;5033667;28;20045;-71
2022/01/16 03:57:14;;;;;;;74.00;31.05;;;;;;;2.78;100.00;102228.13;5041957;28;20574;-79
2022/01/16 03:59:39;;;;;;;68.88;31.23;;;;;;;2.77;100.00;102222.00;5055944;28;20029;-71
2022/01/16 04:02:05;;;;;;;70.15;32.75;;;;;;;2.79;100.00;102224.66;5075629;28;20029;-83
2022/01/16 04:04:30;;;;;;;64.15;30.73;;;;;;;2.78;100.00;102229.00;5075706;28;20050;-76
2022/01/16 04:06:56;;;;;;;67.68;30.00;;;;;;;2.81;100.00;102233.38;5075948;28;20062;-78
2022/01/16 04:09:21;;;;;;;68.82;30.58;;;;;;;2.83;100.00;102222.97;5075688;28;20487;-78
2022/01/16 04:11:55;;;;;;;69.32;32.63;;;;;;;2.82;100.00;102227.31;5075663;28;20481;-70
2022/01/16 04:15:31;;;;;;;71.53;31.67;;;;;;;2.87;100.00;102223.00;5075594;28;20475;-77
2022/01/16 04:17:11;;;;;;;65.40;30.88;;;;;;;2.88;100.00;102223.88;5075314;28;20044;-71
2022/01/16 04:19:36;;;;;;;73.55;31.95;;;;;;;2.93;100.00;102222.19;5074648;28;20059;-83
2022/01/16 04:22:02;;;;;;;67.28;29.90;;;;;;;3.02;100.00;102223.97;5074965;28;20464;-71
2022/01/16 04:24:27;;;;;;;68.80;29.85;;;;;;;3.02;100.00;102223.97;5075520;28;20623;-83
2022/01/16 04:26:52;;;;;;;65.97;29.67;;;;;;;3.03;100.00;102226.63;5075653;28;20024;-71
2022/01/16 04:29:18;;;;;;;62.53;29.20;;;;;;;3.09;100.00;102216.19;5074996;28;20495;-71
2022/01/16 04:31:43;;;;;;;60.53;28.35;;;;;;;3.15;100.00;102227.63;5075018;28;20466;-83
2022/01/16 04:34:08;;;;;;;63.88;28.67;;;;;;;3.21;100.00;102225.03;5075025;28;20028;-71
2022/01/16 04:36:34;;;;;;;57.50;28.05;;;;;;;3.24;100.00;102227.69;5075037;28;20016;-83
2022/01/16 04:38:59;;;;;;;53.22;27.45;;;;;;;3.30;100.00;102234.69;5074513;28;20024;-71
2022/01/16 04:44:08;;;;;;;46.40;25.38;;;;;;;3.37;100.00;102212.94;5074949;28;20048;-71
2022/01/16 04:46:34;;;;;;;50.15;25.10;;;;;;;3.37;100.00;102212.94;5075181;28;20025;-79
2022/01/16 04:49:01;;;;;;;50.65;24.70;;;;;;;3.35;100.00;102209.41;5074639;28;20021;-72
2022/01/16 04:51:28;;;;;;;50.60;25.10;;;;;;;3.36;100.00;102212.03;5074432;28;20056;-77
2022/01/16 04:53:53;;;;;;;50.10;24.88;;;;;;;3.33;100.00;102208.56;5074218;28;20037;-84
2022/01/16 04:56:18;;;;;;;49.67;25.58;;;;;;;3.34;100.00;102211.19;5074905;28;20035;-71
2022/01/16 04:58:44;;;;;;;49.15;24.70;;;;;;;3.42;100.00;102219.09;5074783;28;20032;-71
2022/01/16 05:01:10;;;;;;;47.58;23.83;;;;;;;3.43;100.00;102216.47;5074886;28;20031;-71
2022/01/16 05:03:37;;;;;;;48.70;24.55;;;;;;;3.41;100.00;102215.56;5074576;28;20074;-78
2022/01/16 05:06:04;;;;;;;45.42;22.98;;;;;;;3.44;100.00;102217.38;5074674;28;20021;-71
2022/01/16 05:08:30;;;;;;;50.10;24.25;;;;;;;3.47;100.00;102209.50;5074832;28;20029;-82
2022/01/16 05:10:57;;;;;;;48.15;22.17;;;;;;;3.48;100.00;102215.63;5074786;28;20050;-83
2022/01/16 05:18:48;;;;;;;45.80;22.17;;;;;;;3.54;100.00;102219.19;5074808;28;20032;-71
2022/01/16 05:21:14;;;;;;;41.50;21.42;;;;;;;3.55;100.00;102220.91;5074084;28;20029;-72
2022/01/16 05:23:42;;;;;;;43.17;21.20;;;;;;;3.57;100.00;102198.22;5074373;28;20476;-81
2022/01/16 05:26:08;;;;;;;42.55;20.98;;;;;;;3.58;100.00;102200.00;5074234;28;20431;-75
2022/01/16 05:28:34;;;;;;;38.65;18.73;;;;;;;3.62;100.00;102200.88;5074583;28;20021;-75
2022/01/16 05:31:00;;;;;;;36.03;17.63;;;;;;;3.74;100.00;102207.94;5073908;28;20056;-82
2022/01/16 05:33:25;;;;;;;31.48;17.15;;;;;;;3.81;100.00;102207.13;5073938;28;20389;-71
2022/01/16 05:35:51;;;;;;;27.65;15.18;;;;;;;3.92;100.00;102209.78;5073690;28;20361;-76
2022/01/16 05:38:16;;;;;;;23.55;11.63;;;;;;;4.04;100.00;102215.09;5073533;28;20469;-71
2022/01/16 05:40:43;;;;;;;20.98;7.88;;;;;;;4.30;100.00;102209.06;5073733;28;20036;-72
2022/01/16 05:43:09;;;;;;;13.32;5.45;;;;;;;4.48;100.00;102215.25;5074062;28;20033;-70
2022/01/16 05:45:34;;;;;;;13.02;5.07;;;;;;;4.64;100.00;102206.50;5073760;28;20028;-70
2022/01/16 05:47:59;;;;;;;11.23;4.05;;;;;;;4.94;100.00;102210.06;5072798;28;20498;-71
2022/01/16 05:50:26;;;;;;;7.50;3.15;;;;;;;5.08;97.75;102216.19;5073575;28;20024;-78
2022/01/16 05:52:52;;;;;;;8.65;3.63;;;;;;;5.13;97.34;102218.81;5073194;28;20040;-83
2022/01/16 05:55:18;;;;;;;9.15;3.25;;;;;;;5.17;95.46;102228.44;5073950;28;20387;-84
2022/01/16 05:57:44;;;;;;;5.85;2.80;;;;;;;5.23;93.00;102215.31;5073703;28;20036;-84
2022/01/16 06:00:12;;;;;;;7.97;2.95;;;;;;;5.28;91.66;102227.56;5073682;28;20033;-84
2022/01/16 06:02:38;;;;;;;5.78;2.75;;;;;;;5.39;87.70;102208.28;5063128;28;20036;-71
2022/01/16 06:05:04;;;;;;;4.78;2.60;;;;;;;5.45;85.55;102222.28;5053493;28;20025;-84
2022/01/16 06:07:29;;;;;;;6.93;2.70;;;;;;;5.50;84.98;102216.16;5055270;28;20029;-75
2022/01/16 06:09:55;;;;;;;7.00;2.80;;;;;;;5.49;83.90;102208.31;5073252;28;20350;-80
2022/01/16 06:12:21;;;;;;;7.60;3.13;;;;;;;5.53;82.75;102210.03;5070776;28;20028;-72
2022/01/16 06:14:46;;;;;;;5.80;2.80;;;;;;;5.50;83.65;102218.78;5053257;28;20096;-85
2022/01/16 06:17:12;;;;;;;11.50;2.88;;;;;;;5.44;84.28;102215.31;5053412;28;20079;-82
2022/01/16 06:19:37;;;;;;;5.18;3.10;;;;;;;5.44;83.68;102218.81;5067282;28;20044;-74
2022/01/16 06:22:03;;;;;;;6.50;2.88;;;;;;;5.47;83.96;102233.69;5074026;28;20028;-79
2022/01/16 06:24:29;;;;;;;6.05;2.80;;;;;;;5.50;82.87;102231.03;5058861;28;20037;-81
2022/01/16 06:26:55;;;;;;;8.02;3.30;;;;;;;5.48;83.30;102230.19;5060045;28;20028;-76
2022/01/16 06:29:21;;;;;;;9.20;3.50;;;;;;;5.46;84.10;102231.94;5072930;28;20095;-72
2022/01/16 06:31:46;;;;;;;5.95;3.20;;;;;;;5.49;83.46;102231.94;5073139;28;20020;-79
2022/01/16 06:34:12;;;;;;;5.90;3.28;;;;;;;5.47;84.19;102238.94;5071361;28;20024;-80
2022/01/16 06:36:38;;;;;;;10.32;3.70;;;;;;;5.47;85.13;102233.69;5073452;28;20539;-76
2022/01/16 06:39:06;;;;;;;7.65;3.60;;;;;;;5.54;84.54;102244.19;5072853;28;20029;-72
2022/01/16 06:41:32;;;;;;;10.60;3.45;;;;;;;5.65;84.72;102235.41;5072822;28;20040;-82
2022/01/16 06:43:57;;;;;;;8.48;3.65;;;;;;;5.68;84.38;102238.91;5059392;28;20033;-82
2022/01/16 06:46:23;;;;;;;7.75;3.92;;;;;;;5.70;84.55;102242.44;5053273;28;20476;-70
2022/01/16 06:48:49;;;;;;;6.78;3.80;;;;;;;5.77;84.61;102247.66;5053840;28;20380;-81
2022/01/16 06:51:18;;;;;;;11.05;4.20;;;;;;;5.73;84.90;102247.66;5052671;28;20036;-79
2022/01/16 06:53:44;;;;;;;7.65;3.60;;;;;;;5.74;84.19;102270.44;5054429;28;20472;-79
2022/01/16 06:56:09;;;;;;;8.50;4.13;;;;;;;5.74;84.96;102269.56;5073267;28;20025;-78
2022/01/16 06:58:34;;;;;;;9.25;4.30;;;;;;;5.75;85.05;102273.94;5074301;28;20415;-82
2022/01/16 07:01:00;;;;;;;9.13;3.78;;;;;;;5.80;83.76;102282.69;5070206;28;20100;-71
2022/01/16 07:03:25;;;;;;;7.68;4.22;;;;;;;5.81;83.04;102275.69;5055160;28;20029;-84
2022/01/16 07:05:50;;;;;;;7.35;4.07;;;;;;;5.87;82.03;102270.41;5058254;28;20358;-81
2022/01/16 07:08:16;;;;;;;9.00;4.30;;;;;;;5.93;81.78;102273.03;5057366;28;20064;-85
2022/01/16 07:10:41;;;;;;;9.80;3.90;;;;;;;6.00;80.94;102287.09;5055963;28;20021;-72
2022/01/16 07:13:06;;;;;;;11.90;4.63;;;;;;;6.02;81.26;102283.56;5074563;28;20024;-84
2022/01/16 07:15:32;;;;;;;10.07;3.95;;;;;;;6.04;81.75;102280.94;5073586;28;20107;-84
2022/01/16 07:17:57;;;;;;;8.40;3.67;;;;;;;6.05;81.63;102296.69;5074215;28;20028;-81
2022/01/16 07:20:23;;;;;;;9.60;3.78;;;;;;;6.04;81.98;102294.94;5067173;28;20021;-79
2022/01/16 07:22:48;;;;;;;12.70;4.03;;;;;;;6.01;82.32;102312.47;5053492;28;20037;-72
2022/01/16 07:25:14;;;;;;;8.40;3.97;;;;;;;6.01;82.30;102316.00;5053322;28;20056;-82
2022/01/16 07:27:40;;;;;;;11.73;3.95;;;;;;;6.04;82.58;102312.50;5053692;28;20031;-79
2022/01/16 07:30:07;;;;;;;10.35;3.65;;;;;;;6.13;82.87;102306.34;5057875;28;20028;-83
2022/01/16 07:32:32;;;;;;;9.90;3.85;;;;;;;6.18;83.86;102322.97;5084566;28;20524;-84
2022/01/16 07:34:58;;;;;;;11.68;4.30;;;;;;;6.23;84.97;102310.69;5073570;28;20108;-81
2022/01/16 07:37:24;;;;;;;10.38;4.28;;;;;;;6.19;86.03;102322.97;5062858;28;20028;-72
2022/01/16 07:39:49;;;;;;;10.93;4.50;;;;;;;6.21;86.77;102326.50;5053739;28;20021;-76
2022/01/16 07:42:14;;;;;;;10.15;4.55;;;;;;;6.23;87.77;102340.50;5054885;28;20036;-79
2022/01/16 07:44:40;;;;;;;15.02;4.82;;;;;;;6.25;88.65;102319.44;5056822;28;20025;-71
2022/01/16 07:47:05;;;;;;;8.25;4.80;;;;;;;6.28;89.50;102327.34;5056452;28;20021;-71
2022/01/16 07:49:31;;;;;;;10.10;4.75;;;;;;;6.27;90.28;102332.59;5055679;28;20024;-84
2022/01/16 07:51:56;;;;;;;11.88;5.78;;;;;;;6.29;90.66;102325.56;5063837;28;20108;-83
2022/01/16 07:54:22;;;;;;;13.27;5.72;;;;;;;6.25;91.29;102335.22;5074191;28;20060;-71
2022/01/16 07:56:48;;;;;;;14.93;6.15;;;;;;;6.26;92.31;102350.13;5073552;28;20033;-81
2022/01/16 07:59:13;;;;;;;12.60;5.15;;;;;;;6.23;92.99;102358.91;5073211;28;20529;-71
2022/01/16 08:01:38;;;;;;;17.60;6.47;;;;;;;6.21;93.44;102354.53;5060414;28;20029;-76
2022/01/16 08:04:04;;;;;;;15.35;5.90;;;;;;;6.23;94.00;102351.00;5063643;28;20048;-75
2022/01/16 08:06:29;;;;;;;13.05;6.07;;;;;;;6.22;94.20;102358.91;5063260;28;20057;-88
2022/01/16 08:08:56;;;;;;;11.45;6.15;;;;;;;6.24;94.54;102357.16;5068544;28;20050;-88
2022/01/16 08:11:21;;;;;;;24.15;7.45;;;;;;;6.29;94.92;102336.97;5070932;28;20025;-79
2022/01/16 08:13:46;;;;;;;15.38;6.45;;;;;;;6.32;95.37;102363.28;5074965;28;20380;-88
2022/01/16 08:16:12;;;;;;;18.33;6.47;;;;;;;6.35;94.94;102351.88;5076730;28;20051;-85
2022/01/16 08:18:37;;;;;;;13.90;6.10;;;;;;;6.37;94.98;102352.75;5077355;28;20484;-72
2022/01/16 08:21:03;;;;;;;17.02;6.55;;;;;;;6.37;94.84;102340.47;5075553;28;20381;-88
2022/01/16 08:23:28;;;;;;;15.05;6.43;;;;;;;6.37;95.08;102324.66;5076420;28;20119;-83
2022/01/16 08:25:53;;;;;;;15.55;6.38;;;;;;;6.36;95.38;102336.06;5074597;28;20016;-87
2022/01/16 08:28:19;;;;;;;14.48;5.95;;;;;;;6.35;95.08;102333.44;5072420;28;20487;-78
2022/01/16 08:30:45;;;;;;;12.43;5.80;;;;;;;6.35;95.28;102323.78;5064944;28;20033;-85
2022/01/16 08:33:11;;;;;;;15.75;5.93;;;;;;;6.36;95.41;102317.66;5074687;28;20055;-81
2022/01/16 08:35:36;;;;;;;18.33;6.43;;;;;;;6.38;95.02;102328.16;5076186;28;20058;-84
2022/01/16 08:38:02;;;;;;;19.20;8.30;;;;;;;6.43;95.03;102328.16;5075210;28;20032;-87
2022/01/16 08:40:28;;;;;;;22.85;10.27;;;;;;;6.30;95.02;102333.44;5075298;28;20037;-86
2022/01/16 08:42:53;;;;;;;26.00;11.68;;;;;;;6.12;96.42;102333.50;5074997;28;20473;-87
2022/01/16 08:45:19;;;;;;;28.20;14.05;;;;;;;5.97;97.72;102345.78;5073885;28;20373;-77
2022/01/16 08:47:45;;;;;;;32.83;13.95;;;;;;;5.81;98.83;102346.69;5063311;28;20082;-82
2022/01/16 08:50:12;;;;;;;37.28;16.40;;;;;;;5.76;99.88;102361.56;5054937;28;20112;-81
2022/01/16 08:52:38;;;;;;;39.10;17.15;;;;;;;5.70;100.00;102354.56;5055881;28;20045;-89
2022/01/16 08:55:05;;;;;;;35.45;16.75;;;;;;;5.62;100.00;102356.31;5057463;28;20040;-88
2022/01/16 08:57:30;;;;;;;38.63;17.92;;;;;;;5.57;100.00;102367.69;5066403;28;20533;-86
2022/01/16 08:59:56;;;;;;;44.83;18.75;;;;;;;5.53;100.00;102376.44;5068575;28;20107;-88
2022/01/16 09:02:21;;;;;;;44.15;18.90;;;;;;;5.48;100.00;102377.31;5076760;28;20021;-88
2022/01/16 09:04:46;;;;;;;47.42;20.58;;;;;;;5.47;100.00;102383.44;5077113;28;20016;-85
2022/01/16 09:07:13;;;;;;;44.60;20.25;;;;;;;5.41;100.00;102390.44;5075301;28;20464;-85
2022/01/16 09:09:39;;;;;;;49.13;20.95;;;;;;;5.39;100.00;102372.94;5071077;28;20021;-79
2022/01/16 09:12:05;;;;;;;51.65;20.90;;;;;;;5.36;100.00;102394.81;5071251;28;20028;-79
2022/01/16 09:14:30;;;;;;;49.20;21.55;;;;;;;5.34;100.00;102383.41;5074340;28;20028;-88
2022/01/16 09:16:55;;;;;;;46.92;20.92;;;;;;;5.36;100.00;102384.31;5074287;28;20028;-81
2022/01/16 09:19:21;;;;;;;49.08;21.02;;;;;;;5.38;100.00;102393.09;5072052;28;20534;-85
2022/01/16 09:21:46;;;;;;;47.83;20.38;;;;;;;5.37;100.00;102393.94;5074604;28;20029;-88
2022/01/16 09:24:11;;;;;;;52.55;22.40;;;;;;;5.37;100.00;102400.94;5075123;28;20020;-82
2022/01/16 09:26:36;;;;;;;51.70;22.25;;;;;;;5.38;100.00;102411.47;5074201;28;20032;-85
2022/01/16 09:29:03;;;;;;;51.28;22.23;;;;;;;5.39;100.00;102412.34;5074434;28;20101;-79
2022/01/16 09:31:28;;;;;;;55.90;22.08;;;;;;;5.36;100.00;102414.97;5074333;28;20032;-82
2022/01/16 09:33:54;;;;;;;51.33;21.42;;;;;;;5.36;100.00;102418.47;5074176;28;20379;-82
2022/01/16 09:36:19;;;;;;;56.13;21.98;;;;;;;5.37;100.00;102414.97;5075063;28;20041;-87
2022/01/16 09:38:45;;;;;;;53.03;22.42;;;;;;;5.39;100.00;102422.84;5072995;28;20043;-87
2022/01/16 09:41:11;;;;;;;55.83;21.70;;;;;;;5.33;100.00;102420.19;5071204;28;20107;-85
2022/01/16 09:43:38;;;;;;;54.17;22.05;;;;;;;5.36;100.00;102425.47;5073877;28;20135;-89
2022/01/16 09:46:04;;;;;;;54.03;21.83;;;;;;;5.36;100.00;102430.72;5073690;28;20807;-89
2022/01/16 09:48:29;;;;;;;56.17;22.17;;;;;;;5.36;100.00;102434.22;5074606;28;20028;-88
2022/01/16 09:50:55;;;;;;;58.92;22.38;;;;;;;5.32;100.00;102419.34;5074226;28;20059;-87
2022/01/16 09:53:21;;;;;;;49.25;21.10;;;;;;;5.35;100.00;102421.94;5074108;28;20040;-87
2022/01/16 09:55:46;;;;;;;57.00;21.95;;;;;;;5.36;100.00;102428.97;5075993;28;20403;-89
2022/01/16 09:58:12;;;;;;;53.78;22.48;;;;;;;5.36;100.00;102439.47;5085994;28;20028;-86
2022/01/16 10:00:37;;;;;;;60.08;22.05;;;;;;;5.34;100.00;102442.97;5075273;28;20025;-88
2022/01/16 10:03:03;;;;;;;61.85;24.08;;;;;;;5.33;100.00;102438.59;5075133;28;20052;-89
2022/01/16 10:05:37;;;;;;;56.15;24.17;;;;;;;5.28;100.00;102440.31;5074787;28;20527;-88
2022/01/16 10:08:04;;;;;;;61.47;23.50;;;;;;;5.22;100.00;102452.56;5075175;28;20025;-88
2022/01/16 10:10:33;;;;;;;59.13;23.50;;;;;;;5.19;100.00;102444.69;5074308;28;20036;-75
2022/01/16 10:13:06;;;;;;;59.10;22.08;;;;;;;5.20;100.00;102454.28;5060811;28;20515;-86
2022/01/16 10:15:33;;;;;;;61.13;23.88;;;;;;;5.18;100.00;102449.91;5058907;28;20052;-88
2022/01/16 10:18:01;;;;;;;64.65;25.05;;;;;;;5.15;100.00;102445.53;5076292;28;20585;-88
2022/01/16 10:20:28;;;;;;;64.40;25.58;;;;;;;5.14;100.00;102454.31;5077288;28;20032;-87
2022/01/16 10:23:00;;;;;;;66.63;23.33;;;;;;;5.13;100.00;102465.66;5079328;28;20032;-87
2022/01/16 10:25:47;;;;;;;63.58;24.02;;;;;;;5.12;100.00;102457.78;5080729;28;20016;-81
2022/01/16 10:28:17;;;;;;;59.47;23.15;;;;;;;5.15;100.00;102455.16;5068907;28;20021;-86
2022/01/16 10:30:49;;;;;;;66.25;23.85;;;;;;;5.18;100.00;102465.66;5082280;28;20092;-88
2022/01/16 10:33:19;;;;;;;70.38;23.92;;;;;;;5.21;100.00;102460.44;5079847;28;20091;-89
2022/01/16 10:35:47;;;;;;;67.95;26.05;;;;;;;5.23;100.00;102470.09;5067939;28;20104;-87
2022/01/16 10:38:17;;;;;;;73.60;25.73;;;;;;;5.29;100.00;102468.34;5074157;28;20380;-78
2022/01/16 10:40:49;;;;;;;69.78;25.20;;;;;;;5.36;100.00;102468.38;5066018;28;20090;-78
2022/01/16 10:43:15;;;;;;;;;;;;;;;5.41;100.00;102460.50;5071598;28;20123;-85
2022/01/16 10:45:43;;;;;;;67.13;23.65;;;;;;;5.43;100.00;102461.38;5070710;28;19956;-76
2022/01/16 10:48:10;;;;;;;76.90;26.92;;;;;;;5.46;100.00;102457.88;5070849;28;20039;-74
2022/01/16 10:50:38;;;;;;;70.05;25.40;;;;;;;5.49;100.00;102458.78;5074622;28;20025;-90
2022/01/16 10:53:09;;;;;;;72.10;24.83;;;;;;;5.54;100.00;102454.41;5073144;28;20493;-83
2022/01/16 10:55:43;;;;;;;74.55;25.58;;;;;;;5.55;100.00;102456.16;5074964;28;20032;-83
2022/01/16 10:58:18;;;;;;;69.65;26.27;;;;;;;5.62;100.00;102456.19;5074855;28;20032;-72
2022/01/16 11:00:51;;;;;;;67.28;24.40;;;;;;;5.65;100.00;102457.06;5076176;28;20024;-82
2022/01/16 11:03:18;;;;;;;70.78;25.45;;;;;;;5.65;100.00;102445.66;5072205;28;20029;-87
2022/01/16 11:05:45;;;;;;;71.30;26.27;;;;;;;5.73;100.00;102454.44;5074808;28;20107;-85
2022/01/16 11:08:13;;;;;;;66.65;25.83;;;;;;;5.79;100.00;102449.19;5073120;28;20070;-76
2022/01/16 11:10:44;;;;;;;72.65;26.52;;;;;;;5.84;100.00;102444.78;5071840;28;20108;-79
2022/01/16 11:13:21;;;;;;;71.60;25.50;;;;;;;5.89;100.00;102450.06;5070833;28;20487;-74
2022/01/16 11:15:52;;;;;;;62.08;24.10;;;;;;;6.02;100.00;102451.88;5075649;28;20036;-85
2022/01/16 11:18:22;;;;;;;61.60;25.57;;;;;;;6.14;100.00;102460.63;5073016;28;20056;-72
2022/01/16 11:20:57;;;;;;;63.85;22.70;;;;;;;6.21;100.00;102455.38;5070555;28;20105;-82
2022/01/16 11:25:57;;;;;;;58.10;23.50;;;;;;;6.47;100.00;102454.47;5080877;28;20536;-76
2022/01/16 11:28:23;;;;;;;51.72;21.92;;;;;;;6.69;100.00;102472.84;5068151;28;20033;-79
2022/01/16 11:31:00;;;;;;;53.78;22.58;;;;;;;6.90;100.00;102469.28;5075575;28;20021;-88
2022/01/16 11:33:28;;;;;;;48.42;20.35;;;;;;;7.64;99.67;102468.91;5077994;28;20120;-85
2022/01/16 11:35:58;;;;;;;42.88;19.38;;;;;;;8.57;92.17;102455.00;5067810;28;20090;-82
2022/01/16 11:38:29;;;;;;;49.25;19.60;;;;;;;8.49;90.14;102455.06;5077544;28;20036;-86
2022/01/16 11:40:54;;;;;;;43.85;18.80;;;;;;;8.17;91.24;102450.94;5077322;28;20032;-80
2022/01/16 11:43:32;;;;;;;46.65;18.98;;;;;;;7.88;92.63;102451.19;5075674;28;20032;-85
2022/01/16 11:46:12;;;;;;;47.92;19.30;;;;;;;7.56;94.11;102431.19;5075319;28;20024;-81
2022/01/16 11:48:40;;;;;;;42.38;18.20;;;;;;;7.43;95.23;102447.94;5077400;28;20025;-88
2022/01/16 11:53:58;;;;;;;46.78;17.25;;;;;;;7.36;95.82;102449.75;5075646;28;20879;-81
2022/01/16 11:56:42;;;;;;;37.65;15.85;;;;;;;7.28;95.50;102452.44;5072561;28;20095;-78
2022/01/16 11:59:10;;;;;;;35.72;14.77;;;;;;;7.26;95.25;102455.97;5070342;28;20062;-84
2022/01/16 12:02:07;;;;;;;37.08;15.00;;;;;;;7.31;95.05;102456.81;5075847;28;20464;-82
2022/01/16 12:04:32;;;;;;;37.75;15.05;;;;;;;7.31;95.21;102452.41;5012925;28;20080;-78
2022/01/16 12:07:03;;;;;;;32.83;14.30;;;;;;;7.32;94.45;102454.16;5013858;28;20041;-81